sensor_id;sensor_type;location;lat;lon;timestamp;P1;durP1;ratioP1;P2;durP2;ratioP2
69937;SDS011;57248;47.320;15.998;2022-08-16T00:00:31;7.53;;;4.40;;
69937;SDS011;57248;47.320;15.998;2022-08-16T00:02:58;7.43;;;4.60;;
69937;SDS011;57248;47.320;15.998;2022-08-16T00:05:25;8.13;;;4.80;;
69937;SDS011;57248;47.320;15.998;2022-08-16T00:07:52;8.23;;;4.88;;
69937;SDS011;57248;47.320;15.998;2022-08-16T00:10:18;8.53;;;4.80;;
69937;SDS011;57248;47.320;15.998;2022-08-16T00:12:45;6.97;;;4.65;;
69937;SDS011;57248;47.320;15.998;2022-08-16T00:15:13;7.55;;;4.88;;
69937;SDS011;57248;47.320;15.998;2022-08-16T00:17:41;7.60;;;4.73;;
69937;SDS011;57248;47.320;15.998;2022-08-16T00:20:08;7.50;;;4.68;;
69937;SDS011;57248;47.320;15.998;2022-08-16T00:22:38;7.50;;;4.90;;
69937;SDS011;57248;47.320;15.998;2022-08-16T00:25:06;7.45;;;4.72;;
69937;SDS011;57248;47.320;15.998;2022-08-16T00:27:34;8.50;;;5.00;;
69937;SDS011;57248;47.320;15.998;2022-08-16T00:30:00;8.30;;;5.10;;
69937;SDS011;57248;47.320;15.998;2022-08-16T00:32:25;7.53;;;4.47;;
69937;SDS011;57248;47.320;15.998;2022-08-16T00:34:51;7.27;;;4.43;;
69937;SDS011;57248;47.320;15.998;2022-08-16T00:37:17;7.65;;;4.60;;
69937;SDS011;57248;47.320;15.998;2022-08-16T00:39:44;9.57;;;4.83;;
69937;SDS011;57248;47.320;15.998;2022-08-16T00:42:11;7.72;;;4.57;;
69937;SDS011;57248;47.320;15.998;2022-08-16T00:44:37;7.55;;;4.43;;
69937;SDS011;57248;47.320;15.998;2022-08-16T00:47:05;8.77;;;4.95;;
69937;SDS011;57248;47.320;15.998;2022-08-16T00:49:34;8.07;;;4.47;;
69937;SDS011;57248;47.320;15.998;2022-08-16T00:52:00;8.23;;;4.53;;
69937;SDS011;57248;47.320;15.998;2022-08-16T00:54:27;7.30;;;4.40;;
69937;SDS011;57248;47.320;15.998;2022-08-16T00:56:55;7.20;;;4.13;;
69937;SDS011;57248;47.320;15.998;2022-08-16T00:59:24;7.40;;;4.45;;
69937;SDS011;57248;47.320;15.998;2022-08-16T01:01:51;7.23;;;4.27;;
69937;SDS011;57248;47.320;15.998;2022-08-16T01:04:19;7.25;;;4.38;;
69937;SDS011;57248;47.320;15.998;2022-08-16T01:06:48;7.50;;;4.18;;
69937;SDS011;57248;47.320;15.998;2022-08-16T01:09:15;7.68;;;4.97;;
69937;SDS011;57248;47.320;15.998;2022-08-16T01:11:42;8.10;;;4.60;;
69937;SDS011;57248;47.320;15.998;2022-08-16T01:14:15;7.43;;;4.57;;
69937;SDS011;57248;47.320;15.998;2022-08-16T01:16:46;7.00;;;4.22;;
69937;SDS011;57248;47.320;15.998;2022-08-16T01:19:20;7.70;;;4.68;;
69937;SDS011;57248;47.320;15.998;2022-08-16T01:27:00;6.40;;;3.90;;
69937;SDS011;57248;47.320;15.998;2022-08-16T01:29:53;7.53;;;4.32;;
69937;SDS011;57248;47.320;15.998;2022-08-16T01:32:26;7.43;;;4.57;;
69937;SDS011;57248;47.320;15.998;2022-08-16T01:34:53;8.02;;;4.60;;
69937;SDS011;57248;47.320;15.998;2022-08-16T01:37:19;8.07;;;4.63;;
69937;SDS011;57248;47.320;15.998;2022-08-16T01:39:46;7.93;;;4.57;;
69937;SDS011;57248;47.320;15.998;2022-08-16T01:42:12;8.90;;;4.90;;
69937;SDS011;57248;47.320;15.998;2022-08-16T01:44:39;8.07;;;4.40;;
69937;SDS011;57248;47.320;15.998;2022-08-16T01:47:06;7.30;;;4.63;;
69937;SDS011;57248;47.320;15.998;2022-08-16T01:49:37;7.03;;;4.30;;
69937;SDS011;57248;47.320;15.998;2022-08-16T01:52:10;8.43;;;4.50;;
69937;SDS011;57248;47.320;15.998;2022-08-16T01:54:56;7.97;;;5.03;;
69937;SDS011;57248;47.320;15.998;2022-08-16T01:57:24;8.30;;;4.63;;
69937;SDS011;57248;47.320;15.998;2022-08-16T01:59:50;9.27;;;4.97;;
69937;SDS011;57248;47.320;15.998;2022-08-16T02:02:17;7.18;;;4.32;;
69937;SDS011;57248;47.320;15.998;2022-08-16T02:04:42;7.23;;;4.33;;
69937;SDS011;57248;47.320;15.998;2022-08-16T02:07:09;8.35;;;4.90;;
69937;SDS011;57248;47.320;15.998;2022-08-16T02:09:37;8.20;;;4.60;;
69937;SDS011;57248;47.320;15.998;2022-08-16T02:12:05;7.90;;;4.85;;
69937;SDS011;57248;47.320;15.998;2022-08-16T02:14:33;8.38;;;4.70;;
69937;SDS011;57248;47.320;15.998;2022-08-16T02:17:02;8.30;;;4.90;;
69937;SDS011;57248;47.320;15.998;2022-08-16T02:19:33;8.10;;;4.50;;
69937;SDS011;57248;47.320;15.998;2022-08-16T02:22:01;8.10;;;4.72;;
69937;SDS011;57248;47.320;15.998;2022-08-16T02:24:28;9.02;;;5.20;;
69937;SDS011;57248;47.320;15.998;2022-08-16T02:26:53;7.07;;;4.20;;
69937;SDS011;57248;47.320;15.998;2022-08-16T02:29:21;7.47;;;4.25;;
69937;SDS011;57248;47.320;15.998;2022-08-16T02:31:47;8.38;;;4.57;;
69937;SDS011;57248;47.320;15.998;2022-08-16T02:34:15;7.53;;;4.22;;
69937;SDS011;57248;47.320;15.998;2022-08-16T02:36:43;8.17;;;4.20;;
69937;SDS011;57248;47.320;15.998;2022-08-16T02:39:10;7.38;;;4.40;;
69937;SDS011;57248;47.320;15.998;2022-08-16T02:41:38;6.75;;;4.18;;
69937;SDS011;57248;47.320;15.998;2022-08-16T02:44:06;7.85;;;4.60;;
69937;SDS011;57248;47.320;15.998;2022-08-16T02:46:34;8.05;;;4.55;;
69937;SDS011;57248;47.320;15.998;2022-08-16T02:49:01;7.83;;;4.37;;
69937;SDS011;57248;47.320;15.998;2022-08-16T02:51:28;7.72;;;4.53;;
69937;SDS011;57248;47.320;15.998;2022-08-16T02:53:54;7.75;;;4.25;;
69937;SDS011;57248;47.320;15.998;2022-08-16T02:56:22;7.70;;;4.45;;
69937;SDS011;57248;47.320;15.998;2022-08-16T02:58:48;8.67;;;4.70;;
69937;SDS011;57248;47.320;15.998;2022-08-16T03:01:16;8.05;;;4.50;;
69937;SDS011;57248;47.320;15.998;2022-08-16T03:03:46;7.72;;;4.75;;
69937;SDS011;57248;47.320;15.998;2022-08-16T03:06:14;8.10;;;4.83;;
69937;SDS011;57248;47.320;15.998;2022-08-16T03:08:43;8.25;;;4.68;;
69937;SDS011;57248;47.320;15.998;2022-08-16T03:11:09;7.70;;;4.70;;
69937;SDS011;57248;47.320;15.998;2022-08-16T03:13:36;7.88;;;4.40;;
69937;SDS011;57248;47.320;15.998;2022-08-16T03:16:02;8.07;;;4.40;;
69937;SDS011;57248;47.320;15.998;2022-08-16T03:18:28;7.20;;;4.33;;
69937;SDS011;57248;47.320;15.998;2022-08-16T03:20:54;8.88;;;4.80;;
69937;SDS011;57248;47.320;15.998;2022-08-16T03:23:20;7.80;;;4.43;;
69937;SDS011;57248;47.320;15.998;2022-08-16T03:25:46;7.88;;;4.68;;
69937;SDS011;57248;47.320;15.998;2022-08-16T03:28:12;7.80;;;4.47;;
69937;SDS011;57248;47.320;15.998;2022-08-16T03:30:39;7.80;;;4.45;;
69937;SDS011;57248;47.320;15.998;2022-08-16T03:33:09;6.45;;;3.88;;
69937;SDS011;57248;47.320;15.998;2022-08-16T03:35:44;7.22;;;4.45;;
69937;SDS011;57248;47.320;15.998;2022-08-16T03:38:21;7.70;;;4.90;;
69937;SDS011;57248;47.320;15.998;2022-08-16T03:40:49;8.43;;;4.60;;
69937;SDS011;57248;47.320;15.998;2022-08-16T03:43:16;8.95;;;5.00;;
69937;SDS011;57248;47.320;15.998;2022-08-16T03:45:45;8.65;;;4.93;;
69937;SDS011;57248;47.320;15.998;2022-08-16T03:48:11;8.53;;;5.20;;
69937;SDS011;57248;47.320;15.998;2022-08-16T03:50:37;9.85;;;5.30;;
69937;SDS011;57248;47.320;15.998;2022-08-16T03:53:03;10.95;;;5.00;;
69937;SDS011;57248;47.320;15.998;2022-08-16T03:55:30;8.90;;;4.87;;
69937;SDS011;57248;47.320;15.998;2022-08-16T03:57:56;8.00;;;4.75;;
69937;SDS011;57248;47.320;15.998;2022-08-16T04:00:26;9.07;;;5.07;;
69937;SDS011;57248;47.320;15.998;2022-08-16T04:02:54;8.30;;;4.43;;
69937;SDS011;57248;47.320;15.998;2022-08-16T04:05:22;7.80;;;4.67;;
69937;SDS011;57248;47.320;15.998;2022-08-16T04:07:48;8.13;;;4.25;;
69937;SDS011;57248;47.320;15.998;2022-08-16T04:10:14;8.43;;;4.88;;
69937;SDS011;57248;47.320;15.998;2022-08-16T04:12:41;7.80;;;4.82;;
69937;SDS011;57248;47.320;15.998;2022-08-16T04:15:09;8.30;;;5.17;;
69937;SDS011;57248;47.320;15.998;2022-08-16T04:17:44;9.85;;;5.50;;
69937;SDS011;57248;47.320;15.998;2022-08-16T04:20:10;10.52;;;6.20;;
69937;SDS011;57248;47.320;15.998;2022-08-16T04:22:38;9.03;;;5.13;;
69937;SDS011;57248;47.320;15.998;2022-08-16T04:25:06;8.52;;;5.22;;
69937;SDS011;57248;47.320;15.998;2022-08-16T04:27:34;8.25;;;4.65;;
69937;SDS011;57248;47.320;15.998;2022-08-16T04:30:01;7.90;;;5.20;;
69937;SDS011;57248;47.320;15.998;2022-08-16T04:32:36;7.75;;;4.65;;
69937;SDS011;57248;47.320;15.998;2022-08-16T04:35:07;9.87;;;5.33;;
69937;SDS011;57248;47.320;15.998;2022-08-16T04:37:35;9.60;;;5.47;;
69937;SDS011;57248;47.320;15.998;2022-08-16T04:40:11;10.77;;;5.70;;
69937;SDS011;57248;47.320;15.998;2022-08-16T04:42:38;10.23;;;5.10;;
69937;SDS011;57248;47.320;15.998;2022-08-16T04:45:06;9.43;;;5.25;;
69937;SDS011;57248;47.320;15.998;2022-08-16T04:47:34;11.27;;;6.20;;
69937;SDS011;57248;47.320;15.998;2022-08-16T04:50:10;10.13;;;5.88;;
69937;SDS011;57248;47.320;15.998;2022-08-16T04:52:56;13.07;;;6.25;;
69937;SDS011;57248;47.320;15.998;2022-08-16T04:55:25;12.70;;;6.60;;
69937;SDS011;57248;47.320;15.998;2022-08-16T04:57:52;9.93;;;6.43;;
69937;SDS011;57248;47.320;15.998;2022-08-16T05:00:27;12.07;;;6.53;;
69937;SDS011;57248;47.320;15.998;2022-08-16T05:03:02;11.10;;;6.80;;
69937;SDS011;57248;47.320;15.998;2022-08-16T05:05:35;11.48;;;6.75;;
69937;SDS011;57248;47.320;15.998;2022-08-16T05:08:03;10.75;;;7.28;;
69937;SDS011;57248;47.320;15.998;2022-08-16T05:10:30;10.48;;;6.72;;
69937;SDS011;57248;47.320;15.998;2022-08-16T05:12:57;11.73;;;6.73;;
69937;SDS011;57248;47.320;15.998;2022-08-16T05:15:25;9.30;;;6.10;;
69937;SDS011;57248;47.320;15.998;2022-08-16T05:17:51;9.45;;;6.18;;
69937;SDS011;57248;47.320;15.998;2022-08-16T05:20:18;10.20;;;5.75;;
69937;SDS011;57248;47.320;15.998;2022-08-16T05:22:45;8.82;;;6.10;;
69937;SDS011;57248;47.320;15.998;2022-08-16T05:25:13;9.53;;;5.67;;
69937;SDS011;57248;47.320;15.998;2022-08-16T05:27:46;8.60;;;5.68;;
69937;SDS011;57248;47.320;15.998;2022-08-16T05:30:15;9.65;;;6.38;;
69937;SDS011;57248;47.320;15.998;2022-08-16T05:32:42;8.82;;;6.00;;
69937;SDS011;57248;47.320;15.998;2022-08-16T05:35:10;8.55;;;5.70;;
69937;SDS011;57248;47.320;15.998;2022-08-16T05:37:46;9.47;;;6.03;;
69937;SDS011;57248;47.320;15.998;2022-08-16T05:40:13;8.63;;;5.88;;
69937;SDS011;57248;47.320;15.998;2022-08-16T05:42:40;9.00;;;6.00;;
69937;SDS011;57248;47.320;15.998;2022-08-16T05:45:07;8.15;;;5.85;;
69937;SDS011;57248;47.320;15.998;2022-08-16T05:47:35;8.05;;;6.30;;
69937;SDS011;57248;47.320;15.998;2022-08-16T05:50:00;8.30;;;5.73;;
69937;SDS011;57248;47.320;15.998;2022-08-16T05:52:29;8.13;;;6.05;;
69937;SDS011;57248;47.320;15.998;2022-08-16T05:54:54;9.33;;;6.23;;
69937;SDS011;57248;47.320;15.998;2022-08-16T05:57:20;8.45;;;6.05;;
69937;SDS011;57248;47.320;15.998;2022-08-16T05:59:45;12.80;;;6.33;;
69937;SDS011;57248;47.320;15.998;2022-08-16T06:02:13;8.45;;;6.28;;
69937;SDS011;57248;47.320;15.998;2022-08-16T06:04:43;11.13;;;6.03;;
69937;SDS011;57248;47.320;15.998;2022-08-16T06:07:13;8.65;;;5.80;;
69937;SDS011;57248;47.320;15.998;2022-08-16T06:09:42;8.68;;;6.20;;
69937;SDS011;57248;47.320;15.998;2022-08-16T06:12:08;9.10;;;6.03;;
69937;SDS011;57248;47.320;15.998;2022-08-16T06:14:35;9.97;;;6.03;;
69937;SDS011;57248;47.320;15.998;2022-08-16T06:17:07;9.55;;;6.00;;
69937;SDS011;57248;47.320;15.998;2022-08-16T06:19:32;8.73;;;6.43;;
69937;SDS011;57248;47.320;15.998;2022-08-16T06:22:05;7.33;;;5.53;;
69937;SDS011;57248;47.320;15.998;2022-08-16T06:24:32;8.68;;;5.55;;
69937;SDS011;57248;47.320;15.998;2022-08-16T06:26:58;7.78;;;5.55;;
69937;SDS011;57248;47.320;15.998;2022-08-16T06:29:30;7.78;;;5.78;;
69937;SDS011;57248;47.320;15.998;2022-08-16T06:31:56;8.33;;;6.03;;
69937;SDS011;57248;47.320;15.998;2022-08-16T06:34:24;7.33;;;5.80;;
69937;SDS011;57248;47.320;15.998;2022-08-16T06:36:49;8.77;;;5.75;;
69937;SDS011;57248;47.320;15.998;2022-08-16T06:39:18;7.90;;;5.50;;
69937;SDS011;57248;47.320;15.998;2022-08-16T06:41:52;8.07;;;5.60;;
69937;SDS011;57248;47.320;15.998;2022-08-16T06:44:36;8.68;;;5.60;;
69937;SDS011;57248;47.320;15.998;2022-08-16T06:47:05;7.18;;;5.60;;
69937;SDS011;57248;47.320;15.998;2022-08-16T06:49:31;8.93;;;6.10;;
69937;SDS011;57248;47.320;15.998;2022-08-16T06:51:56;7.10;;;5.80;;
69937;SDS011;57248;47.320;15.998;2022-08-16T06:54:25;9.63;;;6.10;;
69937;SDS011;57248;47.320;15.998;2022-08-16T06:56:52;7.65;;;5.53;;
69937;SDS011;57248;47.320;15.998;2022-08-16T06:59:18;7.65;;;5.63;;
69937;SDS011;57248;47.320;15.998;2022-08-16T07:01:48;8.13;;;5.80;;
69937;SDS011;57248;47.320;15.998;2022-08-16T07:04:14;7.90;;;5.22;;
69937;SDS011;57248;47.320;15.998;2022-08-16T07:06:41;8.70;;;5.70;;
69937;SDS011;57248;47.320;15.998;2022-08-16T07:09:10;7.13;;;5.60;;
69937;SDS011;57248;47.320;15.998;2022-08-16T07:11:40;7.78;;;5.80;;
69937;SDS011;57248;47.320;15.998;2022-08-16T07:14:07;7.57;;;5.90;;
69937;SDS011;57248;47.320;15.998;2022-08-16T07:16:39;6.53;;;5.60;;
69937;SDS011;57248;47.320;15.998;2022-08-16T07:19:07;7.93;;;5.75;;
69937;SDS011;57248;47.320;15.998;2022-08-16T07:21:35;6.70;;;5.80;;
69937;SDS011;57248;47.320;15.998;2022-08-16T07:24:04;7.97;;;6.18;;
69937;SDS011;57248;47.320;15.998;2022-08-16T07:26:33;7.47;;;6.77;;
69937;SDS011;57248;47.320;15.998;2022-08-16T07:29:00;7.32;;;6.63;;
69937;SDS011;57248;47.320;15.998;2022-08-16T07:31:27;8.13;;;7.30;;
69937;SDS011;57248;47.320;15.998;2022-08-16T07:33:52;7.70;;;7.00;;
69937;SDS011;57248;47.320;15.998;2022-08-16T07:36:19;6.80;;;6.20;;
69937;SDS011;57248;47.320;15.998;2022-08-16T07:38:47;7.32;;;6.63;;
69937;SDS011;57248;47.320;15.998;2022-08-16T07:41:14;8.38;;;6.25;;
69937;SDS011;57248;47.320;15.998;2022-08-16T07:43:47;7.43;;;6.40;;
69937;SDS011;57248;47.320;15.998;2022-08-16T07:46:14;6.13;;;5.27;;
69937;SDS011;57248;47.320;15.998;2022-08-16T07:48:40;7.32;;;5.40;;
69937;SDS011;57248;47.320;15.998;2022-08-16T07:51:06;5.68;;;4.85;;
69937;SDS011;57248;47.320;15.998;2022-08-16T07:53:33;6.17;;;5.40;;
69937;SDS011;57248;47.320;15.998;2022-08-16T07:56:00;6.65;;;6.05;;
69937;SDS011;57248;47.320;15.998;2022-08-16T07:58:32;7.85;;;7.15;;
69937;SDS011;57248;47.320;15.998;2022-08-16T08:00:58;7.93;;;7.18;;
69937;SDS011;57248;47.320;15.998;2022-08-16T08:03:26;8.07;;;7.38;;
69937;SDS011;57248;47.320;15.998;2022-08-16T08:05:54;8.07;;;7.37;;
69937;SDS011;57248;47.320;15.998;2022-08-16T08:08:19;7.60;;;6.90;;
69937;SDS011;57248;47.320;15.998;2022-08-16T08:10:47;6.80;;;6.13;;
69937;SDS011;57248;47.320;15.998;2022-08-16T08:13:13;6.10;;;5.50;;
69937;SDS011;57248;47.320;15.998;2022-08-16T08:15:40;5.55;;;4.63;;
69937;SDS011;57248;47.320;15.998;2022-08-16T08:18:05;5.43;;;4.93;;
69937;SDS011;57248;47.320;15.998;2022-08-16T08:20:34;6.22;;;4.78;;
69937;SDS011;57248;47.320;15.998;2022-08-16T08:23:02;7.43;;;6.83;;
69937;SDS011;57248;47.320;15.998;2022-08-16T08:25:36;9.60;;;8.80;;
69937;SDS011;57248;47.320;15.998;2022-08-16T08:28:02;11.20;;;10.30;;
69937;SDS011;57248;47.320;15.998;2022-08-16T08:30:28;12.90;;;12.00;;
69937;SDS011;57248;47.320;15.998;2022-08-16T08:32:53;13.30;;;12.40;;
69937;SDS011;57248;47.320;15.998;2022-08-16T08:35:20;13.50;;;12.30;;
69937;SDS011;57248;47.320;15.998;2022-08-16T08:37:45;14.10;;;13.20;;
69937;SDS011;57248;47.320;15.998;2022-08-16T08:40:12;14.70;;;13.70;;
69937;SDS011;57248;47.320;15.998;2022-08-16T08:42:38;10.98;;;10.18;;
69937;SDS011;57248;47.320;15.998;2022-08-16T08:45:10;13.77;;;12.88;;
69937;SDS011;57248;47.320;15.998;2022-08-16T08:47:36;9.90;;;9.20;;
69937;SDS011;57248;47.320;15.998;2022-08-16T08:50:04;10.05;;;9.30;;
69937;SDS011;57248;47.320;15.998;2022-08-16T08:52:31;7.85;;;7.18;;
69937;SDS011;57248;47.320;15.998;2022-08-16T08:54:56;7.57;;;6.97;;
69937;SDS011;57248;47.320;15.998;2022-08-16T08:57:24;12.53;;;11.73;;
69937;SDS011;57248;47.320;15.998;2022-08-16T09:00:15;8.93;;;8.23;;
69937;SDS011;57248;47.320;15.998;2022-08-16T09:02:45;7.95;;;7.35;;
69937;SDS011;57248;47.320;15.998;2022-08-16T09:05:12;7.57;;;6.97;;
69937;SDS011;57248;47.320;15.998;2022-08-16T09:07:39;6.93;;;6.35;;
69937;SDS011;57248;47.320;15.998;2022-08-16T09:10:06;9.02;;;8.27;;
69937;SDS011;57248;47.320;15.998;2022-08-16T09:12:35;8.15;;;7.45;;
69937;SDS011;57248;47.320;15.998;2022-08-16T09:15:05;7.82;;;7.22;;
69937;SDS011;57248;47.320;15.998;2022-08-16T09:17:33;7.17;;;6.57;;
69937;SDS011;57248;47.320;15.998;2022-08-16T09:20:02;6.65;;;6.15;;
69937;SDS011;57248;47.320;15.998;2022-08-16T09:22:30;9.15;;;6.30;;
69937;SDS011;57248;47.320;15.998;2022-08-16T09:24:57;6.55;;;5.95;;
69937;SDS011;57248;47.320;15.998;2022-08-16T09:27:24;6.70;;;6.10;;
69937;SDS011;57248;47.320;15.998;2022-08-16T09:29:51;6.60;;;5.60;;
69937;SDS011;57248;47.320;15.998;2022-08-16T09:32:18;5.85;;;5.35;;
69937;SDS011;57248;47.320;15.998;2022-08-16T09:34:43;6.93;;;6.32;;
69937;SDS011;57248;47.320;15.998;2022-08-16T09:37:10;7.20;;;6.03;;
69937;SDS011;57248;47.320;15.998;2022-08-16T09:39:37;6.57;;;5.97;;
69937;SDS011;57248;47.320;15.998;2022-08-16T09:42:02;5.85;;;5.25;;
69937;SDS011;57248;47.320;15.998;2022-08-16T09:44:28;5.47;;;4.97;;
69937;SDS011;57248;47.320;15.998;2022-08-16T09:46:55;5.82;;;5.13;;
69937;SDS011;57248;47.320;15.998;2022-08-16T09:49:21;5.60;;;5.10;;
69937;SDS011;57248;47.320;15.998;2022-08-16T09:51:48;5.20;;;4.27;;
69937;SDS011;57248;47.320;15.998;2022-08-16T09:54:19;5.03;;;4.53;;
69937;SDS011;57248;47.320;15.998;2022-08-16T09:56:46;4.53;;;4.10;;
69937;SDS011;57248;47.320;15.998;2022-08-16T09:59:12;4.50;;;3.47;;
69937;SDS011;57248;47.320;15.998;2022-08-16T10:01:41;5.03;;;3.47;;
69937;SDS011;57248;47.320;15.998;2022-08-16T10:04:09;4.63;;;3.43;;
69937;SDS011;57248;47.320;15.998;2022-08-16T10:06:35;4.50;;;2.92;;
69937;SDS011;57248;47.320;15.998;2022-08-16T10:09:05;5.45;;;3.45;;
69937;SDS011;57248;47.320;15.998;2022-08-16T10:11:33;6.10;;;3.08;;
69937;SDS011;57248;47.320;15.998;2022-08-16T10:14:19;5.20;;;3.00;;
69937;SDS011;57248;47.320;15.998;2022-08-16T10:16:45;4.60;;;2.80;;
69937;SDS011;57248;47.320;15.998;2022-08-16T10:19:11;4.25;;;2.67;;
69937;SDS011;57248;47.320;15.998;2022-08-16T10:21:37;8.35;;;3.28;;
69937;SDS011;57248;47.320;15.998;2022-08-16T10:24:04;4.47;;;2.90;;
69937;SDS011;57248;47.320;15.998;2022-08-16T10:26:31;5.68;;;3.08;;
69937;SDS011;57248;47.320;15.998;2022-08-16T10:28:58;10.88;;;3.67;;
69937;SDS011;57248;47.320;15.998;2022-08-16T10:31:23;10.52;;;3.88;;
69937;SDS011;57248;47.320;15.998;2022-08-16T10:33:51;9.00;;;4.13;;
69937;SDS011;57248;47.320;15.998;2022-08-16T10:36:18;10.93;;;3.67;;
69937;SDS011;57248;47.320;15.998;2022-08-16T10:38:44;10.88;;;4.57;;
69937;SDS011;57248;47.320;15.998;2022-08-16T10:41:10;9.82;;;4.50;;
69937;SDS011;57248;47.320;15.998;2022-08-16T10:43:36;9.07;;;4.27;;
69937;SDS011;57248;47.320;15.998;2022-08-16T10:46:04;7.43;;;4.00;;
69937;SDS011;57248;47.320;15.998;2022-08-16T10:48:32;8.45;;;3.70;;
69937;SDS011;57248;47.320;15.998;2022-08-16T10:50:59;6.20;;;3.50;;
69937;SDS011;57248;47.320;15.998;2022-08-16T10:53:25;9.10;;;4.13;;
69937;SDS011;57248;47.320;15.998;2022-08-16T10:55:53;6.30;;;3.55;;
69937;SDS011;57248;47.320;15.998;2022-08-16T10:58:18;7.18;;;3.95;;
69937;SDS011;57248;47.320;15.998;2022-08-16T11:00:44;6.23;;;4.00;;
69937;SDS011;57248;47.320;15.998;2022-08-16T11:03:12;7.40;;;3.70;;
69937;SDS011;57248;47.320;15.998;2022-08-16T11:05:39;6.18;;;3.70;;
69937;SDS011;57248;47.320;15.998;2022-08-16T11:08:07;8.68;;;4.22;;
69937;SDS011;57248;47.320;15.998;2022-08-16T11:10:37;6.57;;;3.77;;
69937;SDS011;57248;47.320;15.998;2022-08-16T11:13:05;5.65;;;3.83;;
69937;SDS011;57248;47.320;15.998;2022-08-16T11:15:33;7.68;;;4.35;;
69937;SDS011;57248;47.320;15.998;2022-08-16T11:18:00;6.65;;;3.75;;
69937;SDS011;57248;47.320;15.998;2022-08-16T11:20:27;6.37;;;4.00;;
69937;SDS011;57248;47.320;15.998;2022-08-16T11:22:53;6.38;;;3.88;;
69937;SDS011;57248;47.320;15.998;2022-08-16T11:25:20;6.20;;;3.78;;
69937;SDS011;57248;47.320;15.998;2022-08-16T11:27:47;6.97;;;3.70;;
69937;SDS011;57248;47.320;15.998;2022-08-16T11:30:14;6.78;;;3.90;;
69937;SDS011;57248;47.320;15.998;2022-08-16T11:32:40;5.97;;;3.65;;
69937;SDS011;57248;47.320;15.998;2022-08-16T11:35:09;6.17;;;3.87;;
69937;SDS011;57248;47.320;15.998;2022-08-16T11:37:40;6.60;;;3.80;;
69937;SDS011;57248;47.320;15.998;2022-08-16T11:40:13;7.40;;;4.00;;
69937;SDS011;57248;47.320;15.998;2022-08-16T11:42:39;6.07;;;3.90;;
69937;SDS011;57248;47.320;15.998;2022-08-16T11:45:05;6.37;;;3.67;;
69937;SDS011;57248;47.320;15.998;2022-08-16T11:47:31;5.20;;;3.70;;
69937;SDS011;57248;47.320;15.998;2022-08-16T11:49:56;6.43;;;3.77;;
69937;SDS011;57248;47.320;15.998;2022-08-16T11:52:22;7.07;;;4.10;;
69937;SDS011;57248;47.320;15.998;2022-08-16T11:54:48;5.72;;;3.95;;
69937;SDS011;57248;47.320;15.998;2022-08-16T11:57:14;5.63;;;3.83;;
69937;SDS011;57248;47.320;15.998;2022-08-16T11:59:40;6.05;;;4.15;;
69937;SDS011;57248;47.320;15.998;2022-08-16T12:02:06;5.50;;;3.80;;
69937;SDS011;57248;47.320;15.998;2022-08-16T12:04:32;5.72;;;4.30;;
69937;SDS011;57248;47.320;15.998;2022-08-16T12:07:02;6.60;;;4.30;;
69937;SDS011;57248;47.320;15.998;2022-08-16T12:09:29;6.53;;;4.30;;
69937;SDS011;57248;47.320;15.998;2022-08-16T12:11:55;6.20;;;4.40;;
69937;SDS011;57248;47.320;15.998;2022-08-16T12:14:22;6.03;;;4.40;;
69937;SDS011;57248;47.320;15.998;2022-08-16T12:16:48;5.60;;;4.20;;
69937;SDS011;57248;47.320;15.998;2022-08-16T12:19:13;6.60;;;4.60;;
69937;SDS011;57248;47.320;15.998;2022-08-16T12:21:39;6.57;;;4.50;;
69937;SDS011;57248;47.320;15.998;2022-08-16T12:24:06;6.38;;;4.43;;
69937;SDS011;57248;47.320;15.998;2022-08-16T12:26:33;6.93;;;4.88;;
69937;SDS011;57248;47.320;15.998;2022-08-16T12:28:58;8.43;;;5.53;;
69937;SDS011;57248;47.320;15.998;2022-08-16T12:31:25;7.20;;;5.00;;
69937;SDS011;57248;47.320;15.998;2022-08-16T12:33:52;7.88;;;5.50;;
69937;SDS011;57248;47.320;15.998;2022-08-16T12:36:18;7.93;;;5.20;;
69937;SDS011;57248;47.320;15.998;2022-08-16T12:38:44;6.88;;;4.85;;
69937;SDS011;57248;47.320;15.998;2022-08-16T12:41:09;8.50;;;4.87;;
69937;SDS011;57248;47.320;15.998;2022-08-16T12:43:35;6.70;;;5.07;;
69937;SDS011;57248;47.320;15.998;2022-08-16T12:46:00;6.57;;;5.20;;
69937;SDS011;57248;47.320;15.998;2022-08-16T12:48:30;7.72;;;5.20;;
69937;SDS011;57248;47.320;15.998;2022-08-16T12:51:16;7.03;;;4.97;;
69937;SDS011;57248;47.320;15.998;2022-08-16T12:53:43;6.60;;;5.18;;
69937;SDS011;57248;47.320;15.998;2022-08-16T12:56:09;6.43;;;4.77;;
69937;SDS011;57248;47.320;15.998;2022-08-16T12:58:37;6.95;;;4.80;;
69937;SDS011;57248;47.320;15.998;2022-08-16T13:01:05;6.25;;;5.00;;
69937;SDS011;57248;47.320;15.998;2022-08-16T13:03:31;7.37;;;5.03;;
69937;SDS011;57248;47.320;15.998;2022-08-16T13:05:56;7.30;;;5.30;;
69937;SDS011;57248;47.320;15.998;2022-08-16T13:08:23;8.25;;;5.05;;
69937;SDS011;57248;47.320;15.998;2022-08-16T13:10:49;6.50;;;4.90;;
69937;SDS011;57248;47.320;15.998;2022-08-16T13:13:17;6.80;;;4.72;;
69937;SDS011;57248;47.320;15.998;2022-08-16T13:15:50;6.93;;;5.25;;
69937;SDS011;57248;47.320;15.998;2022-08-16T13:18:19;6.43;;;4.97;;
69937;SDS011;57248;47.320;15.998;2022-08-16T13:20:47;5.53;;;4.40;;
69937;SDS011;57248;47.320;15.998;2022-08-16T13:23:13;6.13;;;4.78;;
69937;SDS011;57248;47.320;15.998;2022-08-16T13:25:40;5.88;;;4.50;;
69937;SDS011;57248;47.320;15.998;2022-08-16T13:28:08;5.90;;;4.47;;
69937;SDS011;57248;47.320;15.998;2022-08-16T13:30:40;5.95;;;3.95;;
69937;SDS011;57248;47.320;15.998;2022-08-16T13:33:11;7.07;;;5.25;;
69937;SDS011;57248;47.320;15.998;2022-08-16T13:35:40;5.90;;;4.60;;
69937;SDS011;57248;47.320;15.998;2022-08-16T13:38:12;6.10;;;4.70;;
69937;SDS011;57248;47.320;15.998;2022-08-16T13:40:38;5.93;;;4.17;;
69937;SDS011;57248;47.320;15.998;2022-08-16T13:43:04;6.15;;;4.45;;
69937;SDS011;57248;47.320;15.998;2022-08-16T13:45:30;6.82;;;4.90;;
69937;SDS011;57248;47.320;15.998;2022-08-16T13:47:58;7.43;;;4.83;;
69937;SDS011;57248;47.320;15.998;2022-08-16T13:50:24;6.97;;;4.72;;
69937;SDS011;57248;47.320;15.998;2022-08-16T13:52:52;5.50;;;4.47;;
69937;SDS011;57248;47.320;15.998;2022-08-16T13:55:19;8.90;;;4.93;;
69937;SDS011;57248;47.320;15.998;2022-08-16T13:57:45;6.60;;;4.93;;
69937;SDS011;57248;47.320;15.998;2022-08-16T14:00:10;6.07;;;4.50;;
69937;SDS011;57248;47.320;15.998;2022-08-16T14:02:40;6.45;;;4.90;;
69937;SDS011;57248;47.320;15.998;2022-08-16T14:05:05;7.30;;;5.03;;
69937;SDS011;57248;47.320;15.998;2022-08-16T14:07:32;6.25;;;4.75;;
69937;SDS011;57248;47.320;15.998;2022-08-16T14:09:58;6.65;;;5.05;;
69937;SDS011;57248;47.320;15.998;2022-08-16T14:12:25;5.90;;;4.70;;
69937;SDS011;57248;47.320;15.998;2022-08-16T14:14:54;6.28;;;4.97;;
69937;SDS011;57248;47.320;15.998;2022-08-16T14:17:20;6.85;;;5.13;;
69937;SDS011;57248;47.320;15.998;2022-08-16T14:19:47;6.72;;;4.95;;
69937;SDS011;57248;47.320;15.998;2022-08-16T14:22:15;6.82;;;5.25;;
69937;SDS011;57248;47.320;15.998;2022-08-16T14:24:44;6.73;;;5.47;;
69937;SDS011;57248;47.320;15.998;2022-08-16T14:27:10;7.28;;;4.95;;
69937;SDS011;57248;47.320;15.998;2022-08-16T14:29:37;8.23;;;5.45;;
69937;SDS011;57248;47.320;15.998;2022-08-16T14:32:04;7.10;;;6.35;;
69937;SDS011;57248;47.320;15.998;2022-08-16T14:34:31;6.32;;;5.57;;
69937;SDS011;57248;47.320;15.998;2022-08-16T14:36:56;7.27;;;5.70;;
69937;SDS011;57248;47.320;15.998;2022-08-16T14:39:22;6.23;;;5.37;;
69937;SDS011;57248;47.320;15.998;2022-08-16T14:41:47;6.60;;;5.45;;